Terminal Aerodrome Forecast
Issued by NWS Bismarck, ND

Home | Current Version | Previous Version | Text Only | Print | Product List | Glossary On
Versions: 1 2 3 4 5 6 7 8 9 10 11 12 13 14 15 16 17
000
FTUS43 KBIS 262300
TAFBIS
TAF
KBIS 262337Z 2700/2724 08004KT P6SM SCT060
     FM270600 13005KT P6SM OVC025
     FM271700 14010KT 4SM -SN OVC012=

USA.gov is the U.S. government's official web portal to all federal, state and local government web resources and services.